Time;durP1;ratioP1;P1;durP2;ratioP2;P2;SDS_P1;SDS_P2;PMS_P1;PMS_P2;Temp;Humidity;BMP_temperature;BMP_pressure;BME280_temperature;BME280_humidity;BME280_pressure;Samples;Min_cycle;Max_cycle;Signal;HPM_P1;HPM_P2
2023/01/26 00:00:54;;;;;;;7.45;4.53;;;;;;;7.99;76.35;102400.91;4959852;28;20029;-89
2023/01/26 00:03:21;;;;;;;7.95;4.72;;;;;;;7.77;76.40;102365.91;4961121;28;20105;-89
2023/01/26 00:05:46;;;;;;;8.52;5.05;;;;;;;7.83;76.43;102370.03;4945384;28;20090;-88
2023/01/26 00:08:12;;;;;;;8.20;5.15;;;;;;;7.70;76.43;102334.19;4941730;28;20059;-88
2023/01/26 00:10:40;;;;;;;8.20;5.00;;;;;;;8.00;76.87;102387.16;4948567;28;20022;-89
2023/01/26 00:13:08;;;;;;;7.70;4.88;;;;;;;7.82;76.51;102359.47;4940772;29;20425;-88
2023/01/26 00:15:35;;;;;;;7.43;4.80;;;;;;;7.58;76.81;102317.47;4960342;28;20026;-88
2023/01/26 00:18:00;;;;;;;;;;;;;;;7.98;76.55;102379.97;4966986;28;20055;-87
2023/01/26 00:20:26;;;;;;;9.05;5.20;;;;;;;7.58;76.56;102304.47;4940867;29;20076;-88
2023/01/26 00:22:52;;;;;;;7.53;5.13;;;;;;;7.94;76.64;102376.19;4947580;29;20059;-88
2023/01/26 00:25:19;;;;;;;9.00;5.07;;;;;;;7.79;76.67;102349.72;4964624;28;20039;-87
2023/01/26 00:27:44;;;;;;;8.88;4.90;;;;;;;7.92;76.82;102365.63;4957943;28;20115;-88
2023/01/26 00:30:10;;;;;;;8.68;4.97;;;;;;;7.84;76.31;102350.13;4969879;28;20109;-87
2023/01/26 00:32:39;;;;;;;8.00;4.93;;;;;;;7.82;76.30;102342.16;4966081;28;20110;-88
2023/01/26 00:35:05;;;;;;;7.40;4.53;;;;;;;7.83;76.52;102351.81;4942945;29;20027;-89
2023/01/26 00:37:31;;;;;;;7.30;4.43;;;;;;;7.94;76.57;102369.28;4958791;29;20114;-90
2023/01/26 00:40:07;;;;;;;8.35;5.03;;;;;;;7.97;76.44;102367.75;4942488;29;20110;-89
2023/01/26 00:42:32;;;;;;;8.02;4.68;;;;;;;7.79;76.51;102335.78;4942336;29;20023;-88
2023/01/26 00:44:59;;;;;;;8.10;4.85;;;;;;;7.79;76.38;102333.16;4925788;29;20027;-89
2023/01/26 00:47:24;;;;;;;7.57;4.20;;;;;;;7.59;76.57;102306.28;4955028;28;20031;-89
2023/01/26 00:49:50;;;;;;;7.47;4.32;;;;;;;7.67;76.86;102326.09;4965880;28;20082;-89
2023/01/26 00:52:18;;;;;;;8.13;4.50;;;;;;;7.90;76.45;102350.69;4941312;29;20078;-89
2023/01/26 00:54:44;;;;;;;7.88;4.38;;;;;;;7.78;76.50;102333.97;4940210;29;20027;-89
2023/01/26 00:57:11;;;;;;;7.72;4.82;;;;;;;7.61;76.41;102307.34;4912936;29;20439;-88
2023/01/26 00:59:36;;;;;;;8.02;4.78;;;;;;;7.62;76.57;102297.84;4939054;28;20513;-88
2023/01/26 01:02:03;;;;;;;7.85;4.80;;;;;;;7.30;76.42;102243.84;4937613;29;20031;-89
2023/01/26 01:04:30;;;;;;;8.48;4.78;;;;;;;7.87;76.65;102350.38;4933331;28;20027;-88
2023/01/26 01:06:57;;;;;;;7.03;4.45;;;;;;;7.55;76.54;102279.09;4938883;29;20034;-88
2023/01/26 01:09:24;;;;;;;7.20;4.47;;;;;;;7.77;76.46;102319.13;4948757;28;20038;-88
2023/01/26 01:11:50;;;;;;;7.68;4.47;;;;;;;7.96;76.68;102356.44;4963304;28;20042;-89
2023/01/26 01:14:16;;;;;;;7.53;4.60;;;;;;;7.77;76.58;102327.84;4953361;29;20460;-89
2023/01/26 01:16:41;;;;;;;7.38;4.47;;;;;;;7.86;76.66;102340.78;4944144;28;20046;-88
2023/01/26 01:19:07;;;;;;;8.60;4.75;;;;;;;7.93;76.49;102348.34;4948867;28;20078;-88
2023/01/26 01:21:35;;;;;;;7.43;4.63;;;;;;;7.88;76.51;102347.03;4951613;29;20062;-88
2023/01/26 01:24:02;;;;;;;7.10;4.50;;;;;;;7.88;76.69;102332.31;4934249;28;21434;-89
2023/01/26 01:26:27;;;;;;;7.70;5.07;;;;;;;7.66;76.65;102295.69;4955615;29;20020;-88
2023/01/26 01:28:54;;;;;;;8.73;4.93;;;;;;;7.55;76.54;102267.78;4938147;29;20086;-89
2023/01/26 01:31:21;;;;;;;7.25;4.55;;;;;;;7.60;76.48;102281.19;4937833;29;20030;-88
2023/01/26 01:33:47;;;;;;;7.13;4.57;;;;;;;7.75;76.41;102306.91;4934379;29;20114;-89
2023/01/26 01:36:14;;;;;;;8.15;4.63;;;;;;;7.79;76.58;102304.56;4937638;29;20666;-89
2023/01/26 01:38:41;;;;;;;7.10;4.40;;;;;;;7.57;76.72;102278.31;4953622;29;20073;-89
2023/01/26 01:41:07;;;;;;;7.20;4.20;;;;;;;7.62;76.34;102280.59;4930566;29;20039;-89
2023/01/26 01:43:33;;;;;;;7.63;4.68;;;;;;;7.69;76.61;102295.94;4936319;29;20027;-88
2023/01/26 01:46:13;;;;;;;8.45;4.65;;;;;;;7.52;76.86;102264.91;4953675;28;20027;-88
2023/01/26 01:48:45;;;;;;;7.25;4.65;;;;;;;7.95;76.50;102323.38;4938031;29;20022;-88
2023/01/26 01:51:15;;;;;;;7.38;4.45;;;;;;;7.47;76.44;102238.53;4954526;28;20031;-89
2023/01/26 01:53:47;;;;;;;7.32;4.65;;;;;;;7.83;76.47;102302.41;4937979;29;20055;-90
2023/01/26 01:56:20;;;;;;;7.05;4.43;;;;;;;7.75;76.52;102290.41;4953854;29;20026;-89
2023/01/26 01:58:49;;;;;;;7.72;4.32;;;;;;;7.72;76.67;102280.59;4948860;28;20109;-89
2023/01/26 02:01:15;;;;;;;6.25;4.22;;;;;;;7.74;76.48;102273.84;4942217;28;20032;-88
2023/01/26 02:03:41;;;;;;;7.68;4.90;;;;;;;7.67;76.64;102244.59;4938220;29;20035;-89
2023/01/26 02:06:14;;;;;;;;;;;;;;;7.95;76.45;102292.16;4926840;29;20154;-89
2023/01/26 02:08:51;;;;;;;7.00;4.20;;;;;;;7.91;76.59;102277.97;4937501;29;19948;-88
2023/01/26 02:11:33;;;;;;;7.30;4.10;;;;;;;7.92;76.56;102273.69;4928550;29;20469;-89
2023/01/26 02:14:02;;;;;;;7.45;4.40;;;;;;;7.94;76.61;102275.66;4945766;29;20027;-89
2023/01/26 02:16:27;;;;;;;6.25;4.15;;;;;;;7.85;76.35;102255.69;4930281;29;20062;-88
2023/01/26 02:18:53;;;;;;;7.07;4.45;;;;;;;7.83;76.40;102262.44;4951992;28;20086;-89
2023/01/26 02:21:21;;;;;;;7.78;4.60;;;;;;;8.00;76.08;102276.94;4952990;29;20043;-89
2023/01/26 02:24:03;;;;;;;7.20;4.10;;;;;;;7.94;76.26;102269.53;4937046;29;20066;-89
2023/01/26 02:26:32;;;;;;;7.18;4.00;;;;;;;7.78;76.39;102240.34;4937182;29;20106;-89
2023/01/26 02:29:07;;;;;;;6.50;4.32;;;;;;;7.84;76.41;102252.19;4921640;29;20019;-89
2023/01/26 02:31:34;;;;;;;8.77;4.38;;;;;;;7.84;76.69;102244.38;4944831;29;20015;-89
2023/01/26 02:33:59;;;;;;;5.93;3.88;;;;;;;7.65;76.23;102199.34;4936997;28;20456;-89
2023/01/26 02:36:28;;;;;;;7.13;4.20;;;;;;;7.68;76.42;102212.59;4937409;29;20054;-88
2023/01/26 02:39:17;;;;;;;6.88;4.10;;;;;;;7.91;76.40;102253.66;4950683;28;20028;-89
2023/01/26 02:44:34;;;;;;;7.40;4.35;;;;;;;7.94;76.05;102244.44;4952131;28;20033;-89
2023/01/26 02:46:59;;;;;;;6.80;4.40;;;;;;;7.79;76.25;102219.69;4916241;28;20402;-88
2023/01/26 02:52:11;;;;;;;8.38;4.57;;;;;;;7.93;75.99;102242.59;4937481;29;20542;-89
2023/01/26 02:57:22;;;;;;;7.22;4.35;;;;;;;7.91;76.01;102233.75;4956347;28;20034;-88
2023/01/26 02:59:48;;;;;;;7.60;4.35;;;;;;;8.01;76.18;102244.97;4965740;28;20027;-88
2023/01/26 03:02:13;;;;;;;7.05;4.38;;;;;;;7.78;75.89;102214.34;4968731;28;20049;-89
2023/01/26 03:04:41;;;;;;;6.60;4.40;;;;;;;7.88;75.97;102230.88;4948879;28;20504;-88
2023/01/26 03:07:06;;;;;;;6.45;4.18;;;;;;;7.75;75.94;102202.88;4935647;28;20042;-88
2023/01/26 03:09:36;;;;;;;6.05;3.92;;;;;;;7.97;76.09;102240.28;4935264;28;20035;-88
2023/01/26 03:12:03;;;;;;;6.80;4.05;;;;;;;7.72;75.91;102187.00;4920754;29;20035;-88
2023/01/26 03:14:30;;;;;;;6.63;4.13;;;;;;;7.86;75.81;102195.13;4935671;29;20587;-89
2023/01/26 03:16:58;;;;;;;7.20;4.35;;;;;;;7.96;75.94;102215.97;4929150;29;20067;-89
2023/01/26 03:27:45;;;;;;;8.27;4.45;;;;;;;7.94;75.90;102207.09;4936699;29;20090;-89
2023/01/26 03:30:12;;;;;;;8.60;4.13;;;;;;;7.80;76.22;102181.56;4926640;29;20024;-88
2023/01/26 03:32:40;;;;;;;6.47;3.88;;;;;;;7.94;76.05;102214.91;4952026;28;20531;-88
2023/01/26 03:35:08;;;;;;;7.05;4.00;;;;;;;7.72;76.18;102176.59;4934571;28;20085;-89
2023/01/26 03:37:35;;;;;;;7.43;4.07;;;;;;;7.71;76.28;102177.38;4934221;29;20110;-89
2023/01/26 03:56:31;;;;;;;5.82;3.90;;;;;;;7.80;76.13;102187.69;4959183;28;20030;-87
2023/01/26 03:59:07;;;;;;;5.95;4.00;;;;;;;7.83;76.11;102198.38;4965956;28;20035;-87
2023/01/26 04:01:34;;;;;;;6.47;3.90;;;;;;;7.80;75.99;102185.06;4962578;28;20043;-87
2023/01/26 04:09:30;;;;;;;8.05;3.92;;;;;;;7.96;76.03;102205.56;4936926;29;20034;-86
2023/01/26 04:11:56;;;;;;;6.88;4.13;;;;;;;7.73;76.01;102162.84;4934942;29;20515;-88
2023/01/26 04:22:39;;;;;;;5.95;3.80;;;;;;;7.83;75.84;102189.63;4932768;29;20042;-87
2023/01/26 04:25:07;;;;;;;6.53;3.95;;;;;;;7.83;76.14;102193.16;4919638;29;20063;-87
2023/01/26 04:27:33;;;;;;;5.88;3.58;;;;;;;7.82;76.14;102190.44;4950920;28;20019;-86
2023/01/26 04:30:00;;;;;;;6.05;3.97;;;;;;;7.88;76.12;102202.28;4950734;28;20085;-87
2023/01/26 04:32:26;;;;;;;7.28;4.20;;;;;;;7.81;76.19;102193.78;4954631;29;20123;-87
2023/01/26 04:34:54;;;;;;;6.53;4.25;;;;;;;7.96;76.35;102208.16;4938707;29;20474;-88
2023/01/26 04:37:20;;;;;;;6.20;3.85;;;;;;;7.78;76.50;102190.94;4938049;28;20046;-88
2023/01/26 04:39:47;;;;;;;6.68;3.85;;;;;;;7.88;76.24;102197.06;4955695;28;20031;-89
2023/01/26 04:42:13;;;;;;;6.63;3.95;;;;;;;7.89;76.14;102187.56;4918572;28;20035;-88
2023/01/26 04:44:39;;;;;;;7.43;4.10;;;;;;;7.57;76.31;102157.06;4953886;28;20030;-88
2023/01/26 04:47:05;;;;;;;6.10;3.95;;;;;;;7.66;76.07;102156.94;4938600;28;20504;-87
2023/01/26 04:49:30;;;;;;;6.40;4.07;;;;;;;7.81;76.44;102193.78;4938268;29;20031;-87
2023/01/26 04:51:56;;;;;;;5.95;3.95;;;;;;;7.82;76.38;102201.72;4932844;29;20118;-88
2023/01/26 04:54:21;;;;;;;6.45;4.05;;;;;;;7.89;76.24;102217.09;4936207;29;20041;-88
2023/01/26 04:56:47;;;;;;;6.68;3.45;;;;;;;7.60;76.29;102157.34;4938510;28;20142;-87
2023/01/26 04:59:13;;;;;;;6.72;4.25;;;;;;;7.93;76.04;102210.47;4955464;28;20039;-87
2023/01/26 05:01:40;;;;;;;7.07;4.00;;;;;;;7.60;76.22;102165.13;4938513;28;20385;-88
2023/01/26 05:04:06;;;;;;;6.18;3.92;;;;;;;7.90;76.34;102207.63;4937919;29;20034;-87
2023/01/26 05:06:32;;;;;;;5.75;4.00;;;;;;;7.59;75.80;102139.91;4922660;29;20680;-88
2023/01/26 05:08:58;;;;;;;6.10;4.22;;;;;;;7.45;76.27;102125.72;4938758;29;20118;-88
2023/01/26 05:11:24;;;;;;;6.20;4.40;;;;;;;7.88;76.20;102206.56;4953503;28;20464;-88
2023/01/26 05:13:51;;;;;;;6.32;3.92;;;;;;;7.83;75.50;102194.84;4938447;29;20504;-88
2023/01/26 05:16:17;;;;;;;6.00;3.85;;;;;;;7.57;76.03;102144.06;4937365;29;20027;-88
2023/01/26 05:18:43;;;;;;;7.50;4.20;;;;;;;7.70;76.04;102170.38;4948759;28;20117;-87
2023/01/26 05:21:10;;;;;;;7.38;3.97;;;;;;;7.87;75.95;102187.47;4937544;28;20071;-86
2023/01/26 05:23:36;;;;;;;6.40;4.15;;;;;;;7.88;76.38;102189.28;4940903;28;20061;-87
2023/01/26 05:26:02;;;;;;;6.68;4.13;;;;;;;7.89;76.31;102198.88;4956640;28;20027;-87
2023/01/26 05:28:28;;;;;;;6.38;4.03;;;;;;;7.65;76.17;102145.63;4974141;28;20109;-87
2023/01/26 05:30:54;;;;;;;7.20;4.32;;;;;;;7.60;76.20;102153.81;4941370;28;20098;-89
2023/01/26 05:33:20;;;;;;;6.22;4.07;;;;;;;7.63;76.29;102152.41;4946224;28;20130;-88
2023/01/26 05:35:48;;;;;;;5.68;3.50;;;;;;;7.83;76.08;102190.56;4954615;28;20102;-86
2023/01/26 05:38:14;;;;;;;6.57;4.13;;;;;;;7.74;76.15;102189.72;4955701;28;20026;-87
2023/01/26 05:40:39;;;;;;;7.10;4.07;;;;;;;7.72;76.63;102179.19;4955650;28;20022;-88
2023/01/26 05:43:05;;;;;;;7.03;4.10;;;;;;;7.74;76.20;102174.13;4971189;28;20039;-88
2023/01/26 05:45:30;;;;;;;7.07;4.03;;;;;;;7.81;76.17;102189.53;4967917;28;20031;-87
2023/01/26 05:47:56;;;;;;;8.20;4.27;;;;;;;7.48;76.12;102131.16;4971747;28;20050;-87
2023/01/26 05:50:21;;;;;;;7.40;4.18;;;;;;;7.79;76.14;102184.94;4972717;28;20276;-87
2023/01/26 05:52:48;;;;;;;8.48;4.65;;;;;;;7.76;76.10;102185.59;4939489;28;20034;-88
2023/01/26 05:55:16;;;;;;;5.68;3.72;;;;;;;7.69;76.25;102158.13;4972953;28;20033;-88
2023/01/26 05:57:42;;;;;;;6.30;3.80;;;;;;;7.65;75.83;102162.94;4955725;28;20022;-88
2023/01/26 06:00:09;;;;;;;6.53;4.05;;;;;;;7.46;76.29;102121.41;4949033;28;20030;-87
2023/01/26 06:02:34;;;;;;;6.20;3.72;;;;;;;7.81;76.10;102167.78;4968847;28;20030;-87
2023/01/26 06:05:00;;;;;;;5.97;4.05;;;;;;;7.74;76.27;102167.25;4971004;28;20038;-87
2023/01/26 06:07:26;;;;;;;6.78;4.25;;;;;;;7.73;76.27;102159.31;4954924;28;20019;-86
2023/01/26 06:09:52;;;;;;;7.30;4.15;;;;;;;7.89;76.04;102185.88;4967434;28;20034;-86
2023/01/26 06:12:19;;;;;;;6.28;4.07;;;;;;;7.45;76.07;102123.09;4954916;28;20516;-87
2023/01/26 06:14:45;;;;;;;7.70;4.10;;;;;;;7.86;76.25;102183.03;4954923;28;20031;-86
2023/01/26 06:17:13;;;;;;;6.68;4.00;;;;;;;7.77;75.91;102161.41;4971207;28;20028;-86
2023/01/26 06:19:39;;;;;;;6.93;4.00;;;;;;;7.46;76.13;102111.91;4953905;28;20038;-86
2023/01/26 06:22:10;;;;;;;6.38;4.20;;;;;;;7.50;76.38;102123.50;4953744;28;20102;-87
2023/01/26 06:24:35;;;;;;;6.18;4.00;;;;;;;7.47;76.09;102113.75;4966042;28;20027;-86
2023/01/26 06:27:02;;;;;;;8.55;4.53;;;;;;;7.51;76.08;102118.44;4972651;28;20917;-87
2023/01/26 06:29:27;;;;;;;;;;;;;;;7.90;76.19;102184.22;4936878;28;20027;-86
2023/01/26 06:32:11;;;;;;;7.32;4.40;;;;;;;7.42;76.12;102108.91;4954908;28;19913;-87
2023/01/26 06:34:37;;;;;;;6.22;3.95;;;;;;;7.71;76.30;102156.59;4969716;28;20049;-87
2023/01/26 06:37:03;;;;;;;8.13;4.10;;;;;;;7.82;76.06;102165.31;4969481;28;20481;-87
2023/01/26 06:39:28;;;;;;;6.32;4.07;;;;;;;7.84;76.43;102165.47;4938015;28;20038;-88
2023/01/26 06:41:58;;;;;;;7.03;4.38;;;;;;;7.49;76.17;102096.59;4968354;28;20058;-89
2023/01/26 06:44:25;;;;;;;6.20;3.75;;;;;;;7.90;76.09;102163.41;4969559;28;20496;-88
2023/01/26 06:46:50;;;;;;;5.82;4.03;;;;;;;7.56;76.28;102105.84;4954960;28;20046;-88
2023/01/26 06:49:16;;;;;;;6.75;4.18;;;;;;;7.67;76.40;102130.19;4970758;28;20409;-88
2023/01/26 06:51:55;;;;;;;7.55;4.60;;;;;;;7.89;76.16;102157.25;4953590;28;20038;-88
2023/01/26 06:54:20;;;;;;;6.88;4.70;;;;;;;7.54;75.68;102100.50;4971395;28;20117;-87
2023/01/26 06:56:46;;;;;;;7.32;3.97;;;;;;;7.78;75.95;102136.31;4967497;28;20101;-87
2023/01/26 06:59:12;;;;;;;6.00;3.88;;;;;;;7.66;76.34;102126.69;4968627;28;20049;-87
2023/01/26 07:01:40;;;;;;;;;;;;;;;7.86;76.40;102159.59;4937766;28;20054;-86
2023/01/26 07:04:05;;;;;;;6.72;4.05;;;;;;;7.70;76.37;102136.56;4954996;28;19922;-86
2023/01/26 07:06:31;;;;;;;6.72;4.20;;;;;;;7.52;76.15;102093.38;4958379;28;20488;-86
2023/01/26 07:08:57;;;;;;;6.72;4.13;;;;;;;7.44;76.19;102070.97;4969628;28;20489;-86
2023/01/26 07:11:24;;;;;;;6.43;4.30;;;;;;;7.57;76.40;102086.88;4953927;28;20030;-86
2023/01/26 07:14:05;;;;;;;8.50;4.70;;;;;;;7.74;76.29;102107.44;4954354;28;20192;-88
2023/01/26 07:16:31;;;;;;;6.97;4.28;;;;;;;7.79;76.51;102104.31;4971243;28;20078;-86
2023/01/26 07:18:57;;;;;;;7.43;4.38;;;;;;;7.86;76.27;102109.28;4952026;28;20148;-87
2023/01/26 07:21:22;;;;;;;7.65;4.68;;;;;;;7.51;76.27;102061.28;4933371;28;20039;-87
2023/01/26 07:23:50;;;;;;;8.00;4.75;;;;;;;7.84;76.34;102096.16;4968097;28;20559;-87
2023/01/26 07:26:15;;;;;;;6.53;4.20;;;;;;;7.70;76.47;102078.44;4936148;28;20043;-87
2023/01/26 07:28:41;;;;;;;6.80;4.22;;;;;;;7.65;76.19;102058.94;4967226;28;20050;-88
2023/01/26 07:31:09;;;;;;;7.32;4.50;;;;;;;7.57;76.42;102053.06;4970084;28;20038;-89
2023/01/26 07:33:37;;;;;;;6.85;4.18;;;;;;;7.78;76.53;102099.91;4952360;28;20094;-89
2023/01/26 07:36:04;;;;;;;6.60;4.30;;;;;;;7.40;76.36;102033.41;4937165;28;20032;-88
2023/01/26 07:38:31;;;;;;;6.63;4.28;;;;;;;7.82;76.49;102108.09;4946098;28;20118;-89
2023/01/26 07:40:58;;;;;;;7.20;4.40;;;;;;;7.65;76.39;102082.34;4962611;28;20623;-89
2023/01/26 07:43:24;;;;;;;8.15;4.43;;;;;;;7.59;76.06;102061.00;4954617;28;20034;-88
2023/01/26 07:45:53;;;;;;;6.40;4.28;;;;;;;7.43;76.35;102031.09;4970679;28;20027;-88
2023/01/26 07:48:19;;;;;;;6.38;4.28;;;;;;;7.50;76.29;102051.63;4955180;28;20031;-89
2023/01/26 07:50:48;;;;;;;7.15;4.68;;;;;;;7.85;76.35;102102.25;4970497;28;20035;-82
2023/01/26 07:53:15;;;;;;;8.05;4.90;;;;;;;7.88;76.35;102094.72;4955073;28;20030;-89
2023/01/26 07:55:44;;;;;;;6.45;4.13;;;;;;;7.63;76.42;102052.69;4968642;28;20039;-88
2023/01/26 07:58:12;;;;;;;7.65;4.50;;;;;;;7.83;76.40;102094.34;4969215;28;20033;-88
2023/01/26 08:00:39;;;;;;;6.88;4.10;;;;;;;7.79;76.21;102079.25;4971374;28;20034;-86
2023/01/26 08:03:04;;;;;;;7.60;4.60;;;;;;;7.69;76.51;102064.53;4955204;28;20027;-87
2023/01/26 08:05:35;;;;;;;6.97;4.15;;;;;;;7.88;76.17;102099.94;4955521;28;20052;-88
2023/01/26 08:08:01;;;;;;;7.45;4.55;;;;;;;7.53;76.16;102049.31;4931432;29;20043;-90
2023/01/26 08:10:30;;;;;;;6.80;4.47;;;;;;;7.86;76.33;102105.00;4967100;28;20046;-88
2023/01/26 08:12:57;;;;;;;6.60;4.53;;;;;;;7.31;76.38;102010.13;4974452;28;20035;-87
2023/01/26 08:15:26;;;;;;;7.53;4.53;;;;;;;7.88;76.42;102090.44;4942745;28;20126;-88
2023/01/26 08:17:52;;;;;;;7.47;4.18;;;;;;;7.87;76.37;102092.91;4958435;28;20145;-89
2023/01/26 08:20:20;;;;;;;7.50;4.20;;;;;;;7.86;76.62;102094.59;4957550;28;20089;-90
2023/01/26 08:22:46;;;;;;;7.60;4.63;;;;;;;7.53;76.40;102037.97;4943525;28;20092;-88
2023/01/26 08:25:12;;;;;;;7.72;4.85;;;;;;;7.58;76.55;102035.78;4942875;28;20031;-89
2023/01/26 08:27:39;;;;;;;6.70;4.43;;;;;;;7.78;76.19;102069.59;4943233;28;20493;-89
2023/01/26 08:30:05;;;;;;;7.38;4.68;;;;;;;7.52;76.49;102023.19;4967386;28;20480;-87
2023/01/26 08:32:31;;;;;;;;;;;;;;;7.89;76.46;102100.03;4975235;28;20046;-87
2023/01/26 08:34:57;;;;;;;6.00;4.00;;;;;;;7.87;76.35;102092.91;4957904;28;19914;-89
2023/01/26 08:37:24;;;;;;;7.63;4.55;;;;;;;7.81;76.43;102076.75;4958379;28;20027;-89
2023/01/26 08:39:50;;;;;;;6.47;3.90;;;;;;;7.72;76.66;102059.59;4974456;28;20027;-88
2023/01/26 08:42:15;;;;;;;7.97;4.55;;;;;;;7.78;76.25;102067.00;4961610;28;20189;-88
2023/01/26 08:44:42;;;;;;;6.50;4.55;;;;;;;7.61;76.17;102023.06;4958332;28;20042;-88
2023/01/26 08:47:07;;;;;;;7.10;4.45;;;;;;;7.43;76.39;101999.91;4951974;28;20031;-87
2023/01/26 08:49:33;;;;;;;7.55;4.78;;;;;;;7.88;76.18;102054.03;4942899;29;20023;-86
2023/01/26 08:51:59;;;;;;;7.40;4.78;;;;;;;7.80;76.25;102043.75;4953525;28;20035;-87
2023/01/26 08:54:24;;;;;;;8.45;4.55;;;;;;;7.75;76.36;102036.47;4973411;28;20026;-86
2023/01/26 08:56:50;;;;;;;7.85;4.55;;;;;;;7.90;76.49;102068.06;4975164;28;20042;-87
2023/01/26 08:59:15;;;;;;;6.95;4.53;;;;;;;7.89;76.62;102060.13;4956890;28;20113;-87
2023/01/26 09:01:43;;;;;;;7.65;4.78;;;;;;;7.78;76.40;102014.09;4973088;28;20416;-86
2023/01/26 09:04:08;;;;;;;7.28;4.88;;;;;;;7.91;76.77;102033.47;4969002;28;20035;-86
2023/01/26 09:06:34;;;;;;;7.47;4.40;;;;;;;7.90;76.54;102023.84;4974389;28;20034;-85
2023/01/26 09:09:04;;;;;;;8.05;4.70;;;;;;;7.72;76.47;101975.47;4960597;28;20046;-86
2023/01/26 09:11:30;;;;;;;9.05;4.70;;;;;;;7.83;76.52;101995.53;4977156;28;20019;-87
2023/01/26 09:13:56;;;;;;;7.10;4.50;;;;;;;7.85;76.50;101993.97;4979225;28;20087;-85
2023/01/26 09:16:22;;;;;;;8.52;4.85;;;;;;;8.04;76.50;102013.69;4992360;28;20874;-87
2023/01/26 09:18:49;;;;;;;;;;;;;;;8.01;76.50;102003.03;4968499;28;20117;-87
2023/01/26 09:21:14;;;;;;;8.77;4.65;;;;;;;7.82;76.69;101967.69;4956477;28;19920;-87
2023/01/26 09:23:40;;;;;;;8.68;4.43;;;;;;;7.77;76.63;101956.00;4967703;28;20023;-88
2023/01/26 09:26:05;;;;;;;6.82;4.43;;;;;;;7.65;76.59;101924.66;4974359;28;20394;-86
2023/01/26 09:28:31;;;;;;;7.38;4.40;;;;;;;7.84;76.60;101944.41;4962596;28;20041;-87
2023/01/26 09:30:56;;;;;;;9.32;4.93;;;;;;;8.08;76.65;101974.16;4952296;28;20031;-87
2023/01/26 09:33:25;;;;;;;10.35;4.80;;;;;;;7.94;76.79;101950.50;4973426;28;20030;-86
2023/01/26 09:35:51;;;;;;;11.85;4.68;;;;;;;8.04;76.76;101966.88;4956693;28;20409;-87
2023/01/26 09:38:16;;;;;;;7.75;4.68;;;;;;;7.78;76.73;101900.59;4963885;28;20090;-87
2023/01/26 09:41:05;;;;;;;8.70;4.80;;;;;;;7.81;77.20;101893.06;4957862;28;20050;-87
2023/01/26 09:43:43;;;;;;;10.77;5.20;;;;;;;8.08;77.00;101928.22;4967002;28;20128;-87
2023/01/26 09:46:22;;;;;;;11.27;5.25;;;;;;;8.14;76.85;101928.72;4949446;28;20034;-87
2023/01/26 09:49:02;;;;;;;10.25;5.25;;;;;;;7.93;77.11;101891.44;4956831;28;20019;-87
2023/01/26 09:51:46;;;;;;;14.18;5.57;;;;;;;8.18;76.95;101916.88;4974094;28;20101;-87
2023/01/26 09:54:26;;;;;;;11.25;5.28;;;;;;;8.13;76.92;101905.22;4973646;28;20035;-87
2023/01/26 09:56:53;;;;;;;11.27;5.05;;;;;;;8.12;76.76;101891.28;4956562;28;20030;-87
2023/01/26 09:59:57;;;;;;;10.80;5.38;;;;;;;8.24;77.31;101906.09;4955441;28;20070;-88
2023/01/26 10:02:41;;;;;;;12.55;5.38;;;;;;;8.16;77.69;101916.75;4902241;29;20654;-87
2023/01/26 10:05:15;;;;;;;16.08;5.35;;;;;;;7.71;77.79;101828.97;4895291;29;20123;-88
2023/01/26 10:07:44;;;;;;;14.43;5.57;;;;;;;8.00;78.53;101873.75;4934937;28;20101;-87
2023/01/26 10:10:21;;;;;;;13.38;5.53;;;;;;;8.19;77.75;101886.56;4945476;28;20078;-87
2023/01/26 10:12:49;;;;;;;10.32;5.78;;;;;;;8.03;78.46;101861.91;4956170;28;20113;-87
2023/01/26 10:15:32;;;;;;;19.45;6.53;;;;;;;8.13;78.79;101866.19;4971557;28;20103;-87
2023/01/26 10:18:00;;;;;;;17.50;6.68;;;;;;;8.46;77.63;101887.94;4950955;29;20055;-87
2023/01/26 10:20:30;;;;;;;16.02;6.07;;;;;;;8.31;77.39;101862.44;4952601;28;20027;-87
2023/01/26 10:23:11;;;;;;;14.52;6.60;;;;;;;8.26;79.09;101868.09;4937014;29;20417;-87
2023/01/26 10:25:39;;;;;;;15.95;6.82;;;;;;;8.20;78.66;101862.38;4952486;28;21583;-87
2023/01/26 10:28:41;;;;;;;15.23;6.90;;;;;;;8.49;78.71;101898.59;4936997;29;20035;-88
2023/01/26 10:31:15;;;;;;;15.30;7.22;;;;;;;8.36;78.26;101878.47;4878951;29;20143;-88
2023/01/26 10:33:57;;;;;;;17.65;7.68;;;;;;;8.33;78.41;101870.38;4928629;29;20035;-87
2023/01/26 10:36:23;;;;;;;16.88;7.75;;;;;;;8.37;79.09;101862.03;4930918;29;20038;-87
2023/01/26 10:38:51;;;;;;;16.67;8.60;;;;;;;8.41;77.87;101847.63;4926625;29;20513;-86
2023/01/26 10:41:27;;;;;;;15.68;7.78;;;;;;;8.31;78.84;101840.72;4936163;29;20409;-87
2023/01/26 10:44:01;;;;;;;;;;;;;;;8.39;80.68;101872.59;4920464;29;20614;-87
2023/01/26 10:46:29;;;;;;;16.42;8.05;;;;;;;8.45;79.22;101867.91;4935850;29;20435;-88
2023/01/26 10:48:58;;;;;;;15.52;8.18;;;;;;;8.44;79.18;101850.44;4935613;29;20043;-87
2023/01/26 10:51:32;;;;;;;18.17;8.50;;;;;;;8.33;80.45;101832.25;4941146;28;20028;-87
2023/01/26 10:54:24;;;;;;;15.52;7.90;;;;;;;8.62;79.04;101861.44;4936081;29;20043;-87
2023/01/26 10:56:52;;;;;;;16.38;8.35;;;;;;;8.48;78.04;101818.69;4953926;28;20027;-88
2023/01/26 10:59:34;;;;;;;16.15;8.30;;;;;;;8.61;78.33;101847.50;4953613;29;20027;-87
2023/01/26 11:02:15;;;;;;;15.02;7.45;;;;;;;8.44;78.59;101814.00;4952023;28;20519;-89
2023/01/26 11:05:00;;;;;;;15.77;8.35;;;;;;;8.65;78.71;101838.22;4935238;28;20018;-87
2023/01/26 11:07:31;;;;;;;14.13;7.82;;;;;;;8.66;78.78;101840.06;4941570;28;20027;-86
2023/01/26 11:09:56;;;;;;;17.55;7.97;;;;;;;8.70;78.66;101834.28;4950368;28;20026;-86
2023/01/26 11:12:24;;;;;;;15.15;7.70;;;;;;;8.62;78.59;101820.69;4931295;28;20434;-86
2023/01/26 11:15:04;;;;;;;12.73;7.15;;;;;;;8.50;78.44;101807.59;4934410;29;20039;-86
2023/01/26 11:17:48;;;;;;;15.25;7.72;;;;;;;8.57;79.80;101829.81;4929969;29;20097;-86
2023/01/26 11:20:35;;;;;;;14.57;7.88;;;;;;;8.74;79.33;101838.94;4931271;29;20031;-85
2023/01/26 11:23:28;;;;;;;15.80;7.68;;;;;;;8.73;78.48;101834.53;4950717;28;20027;-86
2023/01/26 11:25:56;;;;;;;15.93;7.78;;;;;;;8.69;79.06;101841.19;4924816;28;20046;-86
2023/01/26 11:28:52;;;;;;;13.95;7.28;;;;;;;8.71;78.86;101836.13;4958466;28;20031;-85
2023/01/26 11:31:31;;;;;;;16.70;7.82;;;;;;;8.55;78.83;101801.06;4946262;28;20085;-86
2023/01/26 11:34:20;;;;;;;17.58;7.63;;;;;;;8.73;79.37;101838.03;4947998;28;20027;-85
2023/01/26 11:37:14;;;;;;;14.45;7.20;;;;;;;8.67;79.85;101810.63;4945624;29;20516;-86
2023/01/26 11:40:18;;;;;;;14.90;7.57;;;;;;;8.79;79.49;101824.59;4939705;28;20016;-86
2023/01/26 11:43:07;;;;;;;13.68;7.50;;;;;;;8.80;78.80;101821.19;4945314;28;20026;-88
2023/01/26 11:45:35;;;;;;;15.02;7.35;;;;;;;8.82;78.44;101818.72;4950927;29;20023;-86
2023/01/26 11:48:07;;;;;;;12.70;7.00;;;;;;;8.81;78.65;101807.41;4935456;28;20197;-86
2023/01/26 11:50:45;;;;;;;13.95;7.32;;;;;;;8.84;79.27;101802.41;4952853;28;20031;-87
2023/01/26 11:53:22;;;;;;;14.90;7.10;;;;;;;8.79;78.84;101792.47;4931070;29;20027;-87
2023/01/26 11:56:07;;;;;;;16.85;7.70;;;;;;;8.78;79.85;101788.91;4951971;29;20034;-86
2023/01/26 11:59:02;;;;;;;14.45;7.22;;;;;;;8.81;79.80;101790.88;4929382;29;20036;-87
2023/01/26 12:01:50;;;;;;;16.20;7.45;;;;;;;8.79;79.03;101782.03;4938607;29;20536;-86
2023/01/26 12:04:22;;;;;;;15.70;7.45;;;;;;;8.64;79.73;101758.31;4932905;28;20743;-86
2023/01/26 12:06:57;;;;;;;12.82;6.88;;;;;;;8.68;80.45;101768.19;4953593;28;20596;-85
2023/01/26 12:09:31;;;;;;;16.42;6.82;;;;;;;8.62;80.22;101731.25;4949078;28;20042;-86
2023/01/26 12:12:03;;;;;;;14.90;6.68;;;;;;;8.74;79.81;101748.72;4927211;29;20494;-86
2023/01/26 12:14:43;;;;;;;16.95;7.13;;;;;;;8.77;81.52;101754.16;4943478;28;20018;-86
2023/01/26 12:17:24;;;;;;;17.98;7.30;;;;;;;8.84;80.18;101752.03;4939445;28;20027;-86
2023/01/26 12:20:06;;;;;;;15.23;7.30;;;;;;;8.83;79.99;101748.53;4967111;28;20109;-87
2023/01/26 12:22:35;;;;;;;14.98;7.05;;;;;;;8.71;79.82;101721.53;4961342;28;20645;-87
2023/01/26 12:25:04;;;;;;;18.35;7.30;;;;;;;8.90;79.96;101744.69;4936348;28;20515;-87
2023/01/26 12:27:53;;;;;;;14.88;7.10;;;;;;;8.70;81.05;101715.44;4963507;28;20031;-86
2023/01/26 12:30:45;;;;;;;18.33;7.40;;;;;;;8.73;83.33;101696.53;4932225;28;20505;-86
2023/01/26 12:33:11;;;;;;;19.02;7.18;;;;;;;8.82;81.71;101711.94;4957712;28;20039;-86